Time;durP1;ratioP1;P1;durP2;ratioP2;P2;SDS_P1;SDS_P2;PMS_P1;PMS_P2;Temp;Humidity;BMP_temperature;BMP_pressure;BME280_temperature;BME280_humidity;BME280_pressure;Samples;Min_cycle;Max_cycle;Signal;HPM_P1;HPM_P2
2023/12/08 00:01:22;;;;;;;32.47;15.20;;;;;;;;;;5015255;28;20381;-72
2023/12/08 00:03:48;;;;;;;28.80;14.80;;;;;;;;;;5030872;28;20049;-71
2023/12/08 00:06:15;;;;;;;26.50;14.67;;;;;;;;;;5031066;28;20392;-71
2023/12/08 00:08:41;;;;;;;25.73;13.57;;;;;;;;;;5046104;28;20029;-71
2023/12/08 00:11:07;;;;;;;26.70;12.83;;;;;;;;;;5042078;28;20037;-72
2023/12/08 00:13:33;;;;;;;27.70;12.23;;;;;;;;;;5029262;28;20361;-70
2023/12/08 00:15:59;;;;;;;22.30;11.43;;;;;;;;;;5030667;28;20475;-72
2023/12/08 00:18:25;;;;;;;23.37;10.60;;;;;;;;;;5029268;28;20021;-72
2023/12/08 00:20:53;;;;;;;21.47;10.87;;;;;;;;;;5029372;28;20549;-72
2023/12/08 00:23:18;;;;;;;24.60;11.37;;;;;;;;;;5023892;28;20041;-71
2023/12/08 00:25:44;;;;;;;24.33;11.10;;;;;;;;;;5010058;28;20022;-71
2023/12/08 00:28:09;;;;;;;24.20;11.47;;;;;;;;;;5008806;28;20056;-71
2023/12/08 00:30:35;;;;;;;25.83;12.03;;;;;;;;;;5009243;28;20117;-75
2023/12/08 00:33:02;;;;;;;23.00;12.27;;;;;;;;;;5009277;28;20026;-73
2023/12/08 00:35:28;;;;;;;23.67;11.67;;;;;;;;;;5016304;28;20025;-74
2023/12/08 00:37:53;;;;;;;22.17;10.70;;;;;;;;;;5028719;28;20025;-73
2023/12/08 00:40:20;;;;;;;19.70;10.37;;;;;;;;;;5028526;28;20108;-75
2023/12/08 00:42:45;;;;;;;21.73;10.47;;;;;;;;;;5030165;28;20473;-73
2023/12/08 00:45:11;;;;;;;20.57;10.70;;;;;;;;;;5029965;28;20033;-74
2023/12/08 00:47:36;;;;;;;20.97;10.40;;;;;;;;;;5021479;28;20129;-75
2023/12/08 00:50:02;;;;;;;20.77;10.30;;;;;;;;;;5008976;28;20022;-73
2023/12/08 00:52:27;;;;;;;23.93;9.70;;;;;;;;;;5010044;28;20390;-75
2023/12/08 00:54:53;;;;;;;20.67;9.73;;;;;;;;;;5009222;28;20034;-77
2023/12/08 00:57:18;;;;;;;19.23;9.83;;;;;;;;;;5008673;28;20112;-75
2023/12/08 00:59:44;;;;;;;20.40;8.27;;;;;;;;;;5017961;28;20457;-75
2023/12/08 01:02:09;;;;;;;18.20;9.07;;;;;;;;;;5017207;28;20478;-73
2023/12/08 01:04:35;;;;;;;16.67;8.43;;;;;;;;;;5009702;28;20037;-74
2023/12/08 01:07:00;;;;;;;16.27;8.77;;;;;;;;;;5008073;28;20455;-72
2023/12/08 01:09:26;;;;;;;17.40;8.17;;;;;;;;;;5008357;28;20037;-73
2023/12/08 01:11:52;;;;;;;17.77;8.43;;;;;;;;;;5019241;28;20022;-74
2023/12/08 01:14:17;;;;;;;13.37;7.40;;;;;;;;;;5029439;28;20033;-75
2023/12/08 01:16:43;;;;;;;16.50;7.37;;;;;;;;;;5030030;28;20021;-75
2023/12/08 01:19:10;;;;;;;16.10;7.40;;;;;;;;;;5030060;28;20057;-72
2023/12/08 01:21:37;;;;;;;14.83;7.70;;;;;;;;;;5032174;28;20017;-75
2023/12/08 01:24:03;;;;;;;26.80;9.90;;;;;;;;;;5020946;28;20049;-75
2023/12/08 01:26:28;;;;;;;17.60;8.60;;;;;;;;;;5011019;28;20041;-74
2023/12/08 01:28:54;;;;;;;11.50;6.90;;;;;;;;;;5008300;28;20032;-75
2023/12/08 01:31:19;;;;;;;12.00;6.97;;;;;;;;;;5008325;28;20022;-74
2023/12/08 01:33:45;;;;;;;15.33;7.10;;;;;;;;;;5009799;28;20362;-74
2023/12/08 01:36:10;;;;;;;14.57;6.53;;;;;;;;;;5018703;28;20393;-74
2023/12/08 01:38:36;;;;;;;10.60;6.43;;;;;;;;;;5028459;28;20022;-74
2023/12/08 01:41:02;;;;;;;14.33;8.00;;;;;;;;;;5029631;28;20491;-74
2023/12/08 01:43:28;;;;;;;12.63;6.33;;;;;;;;;;5029825;28;20026;-74
2023/12/08 01:45:56;;;;;;;12.30;6.20;;;;;;;;;;5029311;28;20331;-72
2023/12/08 01:48:23;;;;;;;11.23;6.17;;;;;;;;;;5014462;28;20034;-73
2023/12/08 01:50:49;;;;;;;14.53;7.10;;;;;;;;;;5009244;28;20048;-74
2023/12/08 01:53:14;;;;;;;12.43;5.83;;;;;;;;;;5009057;28;20474;-73
2023/12/08 01:55:40;;;;;;;11.33;6.70;;;;;;;;;;5009054;28;20121;-74
2023/12/08 01:58:07;;;;;;;11.63;6.87;;;;;;;;;;5009781;28;20018;-75
2023/12/08 02:00:33;;;;;;;13.40;6.67;;;;;;;;;;5009176;28;20474;-73
2023/12/08 02:02:59;;;;;;;13.70;6.83;;;;;;;;;;5028287;28;20025;-75
2023/12/08 02:05:26;;;;;;;9.97;6.03;;;;;;;;;;5027151;28;20021;-73
2023/12/08 02:07:53;;;;;;;10.63;5.97;;;;;;;;;;5028894;28;20072;-74
2023/12/08 02:10:19;;;;;;;12.40;6.37;;;;;;;;;;5028923;28;20033;-74
2023/12/08 02:12:45;;;;;;;9.57;5.40;;;;;;;;;;5011824;28;20032;-74
2023/12/08 02:15:13;;;;;;;9.47;5.37;;;;;;;;;;5008867;28;20106;-74
2023/12/08 02:17:40;;;;;;;14.33;6.30;;;;;;;;;;5009099;28;20029;-74
2023/12/08 02:20:09;;;;;;;10.97;5.30;;;;;;;;;;5009265;28;20034;-74
2023/12/08 02:22:35;;;;;;;11.53;5.90;;;;;;;;;;5007631;28;20030;-75
2023/12/08 02:25:01;;;;;;;10.53;5.90;;;;;;;;;;5028982;28;20044;-73
2023/12/08 02:27:27;;;;;;;12.50;5.40;;;;;;;;;;5029206;28;20060;-72
2023/12/08 02:29:53;;;;;;;13.67;6.33;;;;;;;;;;5028331;28;20034;-74
2023/12/08 02:32:56;;;;;;;9.97;4.93;;;;;;;;;;5028731;28;20168;-74
2023/12/08 02:35:23;;;;;;;12.17;6.10;;;;;;;;;;5011731;28;20423;-74
2023/12/08 02:37:51;;;;;;;10.50;5.20;;;;;;;;;;5009085;28;20076;-74
2023/12/08 02:40:17;;;;;;;16.33;5.27;;;;;;;;;;5007219;28;20033;-75
2023/12/08 02:42:43;;;;;;;9.33;5.53;;;;;;;;;;5007468;28;20064;-75
2023/12/08 02:45:09;;;;;;;7.93;4.90;;;;;;;;;;5008780;28;20061;-74
2023/12/08 02:47:34;;;;;;;10.30;5.27;;;;;;;;;;5009642;28;20107;-74
2023/12/08 02:50:00;;;;;;;10.17;5.77;;;;;;;;;;5011496;28;20022;-73
2023/12/08 02:52:25;;;;;;;12.17;5.53;;;;;;;;;;5010915;28;20041;-75
2023/12/08 02:54:51;;;;;;;13.10;5.50;;;;;;;;;;5011547;28;20030;-74
2023/12/08 02:57:16;;;;;;;10.13;5.67;;;;;;;;;;5011913;28;20068;-75
2023/12/08 02:59:43;;;;;;;9.43;5.60;;;;;;;;;;5022289;28;20029;-75
2023/12/08 03:02:08;;;;;;;11.13;5.90;;;;;;;;;;5018550;28;20109;-74
2023/12/08 03:04:34;;;;;;;9.03;5.57;;;;;;;;;;5012225;28;20176;-75
2023/12/08 03:06:59;;;;;;;13.67;5.90;;;;;;;;;;5010732;28;20034;-73
2023/12/08 03:09:25;;;;;;;10.07;5.53;;;;;;;;;;5010680;28;20037;-74
2023/12/08 03:11:50;;;;;;;10.20;5.50;;;;;;;;;;5020037;28;20017;-71
2023/12/08 03:14:16;;;;;;;14.10;6.17;;;;;;;;;;5023849;28;20067;-70
2023/12/08 03:16:45;;;;;;;9.90;5.73;;;;;;;;;;5033463;28;20049;-74
2023/12/08 03:19:11;;;;;;;17.03;6.67;;;;;;;;;;5028591;28;20025;-74
2023/12/08 03:21:37;;;;;;;10.03;5.50;;;;;;;;;;5031934;28;20454;-74
2023/12/08 03:24:03;;;;;;;12.57;5.87;;;;;;;;;;5032114;28;20048;-73
2023/12/08 03:26:28;;;;;;;16.47;6.77;;;;;;;;;;5011862;28;20021;-74
2023/12/08 03:28:53;;;;;;;12.87;6.53;;;;;;;;;;5011740;28;20025;-73
2023/12/08 03:31:32;;;;;;;13.37;6.43;;;;;;;;;;5010161;28;20109;-75
2023/12/08 03:33:58;;;;;;;11.77;6.00;;;;;;;;;;5011393;28;20123;-74
2023/12/08 03:36:24;;;;;;;14.07;6.63;;;;;;;;;;5023374;28;20034;-75
2023/12/08 03:38:49;;;;;;;13.00;6.30;;;;;;;;;;5030057;28;20037;-73
2023/12/08 03:41:15;;;;;;;11.63;5.93;;;;;;;;;;5029705;28;20035;-75
2023/12/08 03:43:40;;;;;;;12.80;5.93;;;;;;;;;;5029648;28;20061;-75
2023/12/08 03:46:07;;;;;;;12.67;6.43;;;;;;;;;;5031219;28;20112;-74
2023/12/08 03:48:36;;;;;;;14.20;6.63;;;;;;;;;;5027934;28;20025;-75
2023/12/08 03:51:01;;;;;;;14.77;6.40;;;;;;;;;;5030982;28;20040;-73
2023/12/08 03:53:27;;;;;;;13.43;6.27;;;;;;;;;;5029685;28;20115;-74
2023/12/08 03:55:52;;;;;;;17.77;7.03;;;;;;;;;;5031340;28;20050;-75
2023/12/08 03:58:18;;;;;;;13.27;6.80;;;;;;;;;;5030916;28;20022;-75
2023/12/08 04:00:43;;;;;;;15.43;6.47;;;;;;;;;;5010308;28;20096;-75
2023/12/08 04:03:10;;;;;;;16.07;5.97;;;;;;;;;;5011297;28;20056;-74
2023/12/08 04:05:35;;;;;;;10.83;5.47;;;;;;;;;;5009855;28;20025;-74
2023/12/08 04:08:04;;;;;;;11.50;6.50;;;;;;;;;;5011087;28;20030;-75
2023/12/08 04:10:31;;;;;;;9.73;5.03;;;;;;;;;;5010784;28;20056;-75
2023/12/08 04:12:57;;;;;;;14.00;5.70;;;;;;;;;;5030267;28;20086;-74
2023/12/08 04:15:22;;;;;;;15.40;6.43;;;;;;;;;;5029265;28;20120;-74
2023/12/08 04:17:48;;;;;;;13.27;6.60;;;;;;;;;;5030430;28;20435;-76
2023/12/08 04:20:14;;;;;;;13.70;5.47;;;;;;;;;;5029402;28;20036;-76
2023/12/08 04:22:39;;;;;;;15.13;5.83;;;;;;;;;;5029685;28;20115;-76
2023/12/08 04:25:07;;;;;;;12.93;5.70;;;;;;;;;;5030782;28;20025;-74
2023/12/08 04:27:32;;;;;;;13.07;6.43;;;;;;;;;;5030450;28;20481;-75
2023/12/08 04:29:58;;;;;;;15.90;6.37;;;;;;;;;;5032858;28;20026;-74
2023/12/08 04:32:23;;;;;;;12.53;6.30;;;;;;;;;;5054327;28;20021;-76
2023/12/08 04:34:49;;;;;;;12.90;6.03;;;;;;;;;;5049087;28;20341;-74
2023/12/08 04:37:14;;;;;;;18.47;6.80;;;;;;;;;;5033150;28;20043;-74
2023/12/08 04:39:40;;;;;;;12.77;5.67;;;;;;;;;;5034116;28;20104;-74
2023/12/08 04:42:05;;;;;;;13.43;6.63;;;;;;;;;;5032033;28;20086;-72
2023/12/08 04:44:31;;;;;;;15.03;7.13;;;;;;;;;;5032382;28;20033;-73
2023/12/08 04:46:56;;;;;;;16.63;7.20;;;;;;;;;;5026491;28;20128;-74
2023/12/08 04:49:21;;;;;;;15.33;6.93;;;;;;;;;;5010669;28;20083;-74
2023/12/08 04:51:47;;;;;;;13.03;6.70;;;;;;;;;;5008749;28;20030;-75
2023/12/08 04:54:12;;;;;;;15.33;7.57;;;;;;;;;;5010400;28;20109;-75
2023/12/08 04:56:40;;;;;;;13.53;7.77;;;;;;;;;;5008390;28;20049;-76
2023/12/08 04:59:08;;;;;;;16.27;8.60;;;;;;;;;;5014056;28;20018;-74
2023/12/08 05:01:34;;;;;;;20.33;8.07;;;;;;;;;;5009873;28;20026;-75
2023/12/08 05:04:00;;;;;;;20.37;9.23;;;;;;;;;;5025037;28;20022;-77
2023/12/08 05:06:26;;;;;;;21.77;9.43;;;;;;;;;;5009890;28;20052;-73
2023/12/08 05:08:52;;;;;;;18.90;8.23;;;;;;;;;;5024904;28;20022;-73
2023/12/08 05:11:18;;;;;;;21.90;9.37;;;;;;;;;;5031547;28;20025;-75
2023/12/08 05:13:43;;;;;;;20.83;9.63;;;;;;;;;;5029679;28;20394;-74
2023/12/08 05:16:12;;;;;;;29.53;11.93;;;;;;;;;;5028481;28;20025;-75
2023/12/08 05:18:37;;;;;;;24.03;11.90;;;;;;;;;;5029527;28;20029;-74
2023/12/08 05:21:03;;;;;;;23.57;11.07;;;;;;;;;;5029708;28;20056;-75
2023/12/08 05:23:29;;;;;;;22.50;11.93;;;;;;;;;;5023267;28;20496;-75
2023/12/08 05:25:54;;;;;;;28.10;11.00;;;;;;;;;;5009974;28;20040;-74
2023/12/08 05:28:20;;;;;;;28.20;12.13;;;;;;;;;;5013066;28;20036;-76
2023/12/08 05:30:45;;;;;;;32.83;11.67;;;;;;;;;;5015366;28;20388;-75
2023/12/08 05:33:11;;;;;;;21.27;10.53;;;;;;;;;;5018602;28;20482;-74
2023/12/08 05:35:36;;;;;;;26.83;13.37;;;;;;;;;;5017993;28;20268;-75
2023/12/08 05:38:02;;;;;;;28.47;12.77;;;;;;;;;;5034089;28;20021;-73
2023/12/08 05:40:28;;;;;;;28.80;13.60;;;;;;;;;;5031866;28;20076;-75
2023/12/08 05:42:53;;;;;;;27.13;11.60;;;;;;;;;;5035430;28;20500;-72
2023/12/08 05:45:19;;;;;;;32.40;13.30;;;;;;;;;;5031053;28;20028;-73
2023/12/08 05:47:44;;;;;;;30.13;12.30;;;;;;;;;;5019409;28;20109;-75
2023/12/08 05:50:10;;;;;;;25.07;12.17;;;;;;;;;;5009481;28;20026;-75
2023/12/08 05:52:36;;;;;;;31.30;13.57;;;;;;;;;;5009449;28;20498;-76
2023/12/08 05:55:02;;;;;;;45.17;16.47;;;;;;;;;;5007962;28;20433;-75
2023/12/08 05:57:28;;;;;;;32.13;13.63;;;;;;;;;;5007866;28;20109;-74
2023/12/08 05:59:54;;;;;;;36.33;14.60;;;;;;;;;;5019681;28;20235;-73
2023/12/08 06:02:21;;;;;;;27.23;13.07;;;;;;;;;;5018458;28;20486;-72
2023/12/08 06:04:47;;;;;;;37.40;13.90;;;;;;;;;;5030274;28;20033;-72
2023/12/08 06:07:12;;;;;;;31.80;13.53;;;;;;;;;;5033108;28;20064;-73
2023/12/08 06:09:38;;;;;;;35.33;14.10;;;;;;;;;;5026402;28;20087;-74
2023/12/08 06:12:03;;;;;;;32.10;13.83;;;;;;;;;;5021487;28;20035;-73
2023/12/08 06:14:29;;;;;;;33.87;14.43;;;;;;;;;;5030787;28;20389;-71
2023/12/08 06:16:54;;;;;;;37.83;15.03;;;;;;;;;;5029999;28;20414;-72
2023/12/08 06:19:20;;;;;;;33.00;12.53;;;;;;;;;;5028800;28;20072;-74
2023/12/08 06:21:48;;;;;;;29.27;12.53;;;;;;;;;;5028380;28;20159;-75
2023/12/08 06:24:14;;;;;;;31.27;13.00;;;;;;;;;;5019329;28;20037;-76
2023/12/08 06:26:39;;;;;;;27.17;12.23;;;;;;;;;;5017896;28;20038;-76
2023/12/08 06:29:05;;;;;;;29.23;12.47;;;;;;;;;;5033728;28;20428;-76
2023/12/08 06:31:31;;;;;;;33.57;14.83;;;;;;;;;;5035371;28;20026;-78
2023/12/08 06:33:57;;;;;;;32.47;14.20;;;;;;;;;;5033601;28;20035;-78
2023/12/08 06:36:24;;;;;;;27.97;12.93;;;;;;;;;;5007753;28;20541;-76
2023/12/08 06:38:49;;;;;;;34.17;13.50;;;;;;;;;;5030327;28;20033;-76
2023/12/08 06:41:16;;;;;;;29.63;12.77;;;;;;;;;;5032464;28;20116;-72
2023/12/08 06:43:42;;;;;;;29.47;13.73;;;;;;;;;;5028925;28;20033;-76
2023/12/08 06:46:07;;;;;;;28.27;13.77;;;;;;;;;;5023687;28;20499;-75
2023/12/08 06:48:34;;;;;;;35.73;12.93;;;;;;;;;;5030484;28;20359;-76
2023/12/08 06:50:59;;;;;;;38.63;18.73;;;;;;;;;;5031466;28;20036;-74
2023/12/08 06:53:25;;;;;;;34.47;15.17;;;;;;;;;;5028300;28;20444;-72
2023/12/08 06:55:50;;;;;;;34.20;15.73;;;;;;;;;;5015567;28;20049;-74
2023/12/08 06:58:16;;;;;;;37.00;14.47;;;;;;;;;;5028266;28;20030;-73
2023/12/08 07:00:41;;;;;;;30.87;13.60;;;;;;;;;;5028187;28;20040;-74
2023/12/08 07:03:12;;;;;;;33.70;13.70;;;;;;;;;;5025251;28;20094;-75
2023/12/08 07:05:39;;;;;;;35.23;15.23;;;;;;;;;;5033791;28;20529;-76
2023/12/08 07:08:04;;;;;;;28.03;12.93;;;;;;;;;;5036815;28;20037;-79
2023/12/08 07:10:31;;;;;;;42.87;15.97;;;;;;;;;;5031242;28;20032;-79
2023/12/08 07:12:56;;;;;;;36.73;15.70;;;;;;;;;;5047605;28;20044;-76
2023/12/08 07:15:22;;;;;;;26.87;13.73;;;;;;;;;;5055080;28;20021;-78
2023/12/08 07:17:49;;;;;;;34.83;14.87;;;;;;;;;;5038717;28;20045;-78
2023/12/08 07:20:18;;;;;;;30.67;13.83;;;;;;;;;;5029937;28;20112;-77
2023/12/08 07:22:44;;;;;;;34.70;14.60;;;;;;;;;;5032390;28;20457;-76
2023/12/08 07:25:12;;;;;;;34.60;14.40;;;;;;;;;;5030632;28;20041;-77
2023/12/08 07:27:38;;;;;;;34.90;13.13;;;;;;;;;;5028536;28;20038;-75
2023/12/08 07:30:04;;;;;;;32.47;14.43;;;;;;;;;;5039946;28;20371;-76
2023/12/08 07:32:30;;;;;;;34.57;14.70;;;;;;;;;;5025702;28;20037;-77
2023/12/08 07:34:56;;;;;;;38.27;15.93;;;;;;;;;;5023944;28;20064;-74
2023/12/08 07:37:22;;;;;;;31.67;14.20;;;;;;;;;;5022569;28;20156;-77
2023/12/08 07:39:48;;;;;;;36.50;14.50;;;;;;;;;;5028058;28;20100;-73
2023/12/08 07:42:14;;;;;;;29.87;13.50;;;;;;;;;;5029674;28;20036;-78
2023/12/08 07:44:39;;;;;;;36.53;15.00;;;;;;;;;;5017369;28;20045;-75
2023/12/08 07:47:05;;;;;;;31.97;13.87;;;;;;;;;;5035680;28;20025;-69
2023/12/08 07:49:31;;;;;;;39.17;15.73;;;;;;;;;;5029774;28;20041;-74
2023/12/08 07:51:57;;;;;;;32.50;13.90;;;;;;;;;;5021976;28;20067;-75
2023/12/08 07:54:23;;;;;;;42.67;14.47;;;;;;;;;;5024918;28;20055;-75
2023/12/08 07:56:50;;;;;;;33.87;13.10;;;;;;;;;;5029666;28;20076;-78
2023/12/08 07:59:15;;;;;;;32.73;13.60;;;;;;;;;;5034489;28;20041;-75
2023/12/08 08:01:42;;;;;;;28.23;13.07;;;;;;;;;;5028995;28;20521;-74
2023/12/08 08:04:08;;;;;;;29.80;12.90;;;;;;;;;;5032403;28;20061;-77
2023/12/08 08:06:33;;;;;;;32.80;14.87;;;;;;;;;;5028621;28;20078;-75
2023/12/08 08:08:59;;;;;;;31.70;14.83;;;;;;;;;;5030794;28;20491;-75
2023/12/08 08:11:26;;;;;;;33.23;14.23;;;;;;;;;;5030498;28;20136;-72
2023/12/08 08:13:53;;;;;;;37.47;15.43;;;;;;;;;;5009543;28;20129;-71
2023/12/08 08:16:18;;;;;;;32.77;17.67;;;;;;;;;;5018216;28;20037;-72
2023/12/08 08:18:44;;;;;;;28.07;13.00;;;;;;;;;;5025383;28;20029;-75
2023/12/08 08:21:10;;;;;;;40.20;14.97;;;;;;;;;;5022449;28;20117;-72
2023/12/08 08:23:36;;;;;;;38.10;14.70;;;;;;;;;;5019706;28;20083;-72
2023/12/08 08:26:03;;;;;;;28.97;13.70;;;;;;;;;;5031747;28;20037;-72
2023/12/08 08:28:28;;;;;;;31.10;13.73;;;;;;;;;;5032205;28;20048;-72
2023/12/08 08:30:54;;;;;;;36.60;14.43;;;;;;;;;;5032808;28;20029;-72
2023/12/08 08:33:20;;;;;;;30.60;14.37;;;;;;;;;;5021667;28;20037;-73
2023/12/08 08:35:45;;;;;;;42.43;16.67;;;;;;;;;;5023808;28;20029;-71
2023/12/08 08:38:12;;;;;;;39.23;16.77;;;;;;;;;;5023690;28;20025;-76
2023/12/08 08:40:38;;;;;;;31.13;14.47;;;;;;;;;;5023605;28;20544;-71
2023/12/08 08:43:03;;;;;;;33.03;13.47;;;;;;;;;;5027589;28;20037;-73
2023/12/08 08:45:29;;;;;;;46.27;15.83;;;;;;;;;;5027635;28;20036;-73
2023/12/08 08:47:55;;;;;;;34.80;15.70;;;;;;;;;;5027408;28;20040;-73
2023/12/08 08:50:22;;;;;;;39.67;15.70;;;;;;;;;;5027076;28;20528;-72
2023/12/08 08:52:48;;;;;;;33.63;14.53;;;;;;;;;;5026008;28;20551;-72
2023/12/08 08:55:13;;;;;;;32.57;13.40;;;;;;;;;;5028656;28;20450;-73
2023/12/08 08:57:40;;;;;;;34.53;14.50;;;;;;;;;;5024716;28;20114;-71
2023/12/08 09:00:11;;;;;;;31.00;13.23;;;;;;;;;;5015042;28;20623;-72
2023/12/08 09:02:37;;;;;;;37.40;15.20;;;;;;;;;;5018413;28;20060;-75
2023/12/08 09:05:04;;;;;;;37.13;15.60;;;;;;;;;;5024483;28;20480;-72
2023/12/08 09:07:29;;;;;;;36.67;15.73;;;;;;;;;;5017483;28;20041;-70
2023/12/08 09:09:55;;;;;;;35.73;14.07;;;;;;;;;;5030395;28;20037;-71
2023/12/08 09:12:20;;;;;;;42.80;15.40;;;;;;;;;;5029270;28;20494;-71
2023/12/08 09:14:46;;;;;;;33.87;13.83;;;;;;;;;;5026593;28;20388;-70
2023/12/08 09:17:12;;;;;;;32.40;13.40;;;;;;;;;;5029281;28;20601;-73
2023/12/08 09:19:38;;;;;;;31.40;13.70;;;;;;;;;;5029746;28;20075;-73
2023/12/08 09:22:05;;;;;;;30.87;12.93;;;;;;;;;;5034180;28;20082;-73
2023/12/08 09:24:30;;;;;;;31.17;13.50;;;;;;;;;;5014735;28;20034;-74
2023/12/08 09:26:56;;;;;;;33.70;14.17;;;;;;;;;;5022548;28;20037;-72
2023/12/08 09:29:22;;;;;;;33.13;13.33;;;;;;;;;;5030881;28;20054;-74
2023/12/08 09:31:48;;;;;;;31.13;13.83;;;;;;;;;;5032853;28;20060;-71
2023/12/08 09:34:16;;;;;;;34.23;14.63;;;;;;;;;;5025936;28;20030;-72
2023/12/08 09:36:42;;;;;;;26.60;12.47;;;;;;;;;;5027038;28;20037;-73
2023/12/08 09:39:08;;;;;;;28.77;13.47;;;;;;;;;;5028981;28;20551;-72
2023/12/08 09:41:38;;;;;;;30.67;13.20;;;;;;;;;;5026643;28;21617;-72
2023/12/08 09:44:11;;;;;;;30.97;13.83;;;;;;;;;;5025149;28;20029;-72
2023/12/08 09:46:44;;;;;;;34.77;14.57;;;;;;;;;;5019591;28;20152;-71
2023/12/08 09:49:28;;;;;;;38.70;15.60;;;;;;;;;;5027421;28;20045;-71
2023/12/08 09:51:56;;;;;;;28.70;12.97;;;;;;;;;;5021779;28;20034;-73
2023/12/08 09:54:23;;;;;;;30.33;13.83;;;;;;;;;;5014750;28;20064;-69
2023/12/08 09:56:54;;;;;;;32.17;14.60;;;;;;;;;;5023725;28;20076;-70
2023/12/08 09:59:31;;;;;;;26.40;12.87;;;;;;;;;;5017087;28;20394;-71
2023/12/08 10:01:57;;;;;;;32.60;13.83;;;;;;;;;;5029052;28;20048;-70
2023/12/08 10:04:26;;;;;;;27.27;12.97;;;;;;;;;;5020886;28;20995;-69
2023/12/08 10:06:56;;;;;;;27.33;12.87;;;;;;;;;;5028183;28;20026;-70
2023/12/08 10:09:22;;;;;;;29.80;13.53;;;;;;;;;;5029346;28;20087;-69
2023/12/08 10:11:50;;;;;;;31.50;12.40;;;;;;;;;;5026199;28;20281;-69
2023/12/08 10:14:19;;;;;;;36.10;14.23;;;;;;;;;;5027960;28;20029;-70
2023/12/08 10:16:50;;;;;;;28.10;13.30;;;;;;;;;;5030753;28;20532;-71
2023/12/08 10:19:20;;;;;;;34.07;14.17;;;;;;;;;;5024265;28;20116;-71
2023/12/08 10:21:59;;;;;;;36.00;13.53;;;;;;;;;;5031409;28;20078;-71
2023/12/08 10:24:27;;;;;;;34.20;14.33;;;;;;;;;;5025249;28;20061;-69
2023/12/08 10:26:54;;;;;;;30.87;16.57;;;;;;;;;;5025017;28;20048;-70
2023/12/08 10:29:21;;;;;;;31.93;15.37;;;;;;;;;;5023470;28;20044;-71
2023/12/08 10:31:47;;;;;;;33.77;15.30;;;;;;;;;;5030107;28;20068;-70
2023/12/08 10:34:13;;;;;;;31.63;14.23;;;;;;;;;;5026059;28;20393;-70
2023/12/08 10:36:39;;;;;;;37.07;15.07;;;;;;;;;;5026905;28;20366;-70
2023/12/08 10:39:06;;;;;;;27.97;13.97;;;;;;;;;;5022370;28;20026;-71
2023/12/08 10:41:34;;;;;;;35.67;14.20;;;;;;;;;;5026869;28;20033;-69
2023/12/08 10:44:02;;;;;;;42.10;16.00;;;;;;;;;;5025631;28;20033;-69
2023/12/08 10:46:32;;;;;;;34.83;14.93;;;;;;;;;;5026223;28;20418;-70
2023/12/08 10:49:01;;;;;;;32.87;14.20;;;;;;;;;;5022824;28;20034;-70
2023/12/08 10:51:27;;;;;;;33.50;14.57;;;;;;;;;;5047295;28;20129;-68
2023/12/08 10:53:53;;;;;;;36.37;13.83;;;;;;;;;;5020295;28;20052;-71
2023/12/08 10:56:21;;;;;;;30.13;14.63;;;;;;;;;;5022774;28;20057;-69
2023/12/08 10:59:01;;;;;;;26.53;13.30;;;;;;;;;;5037316;28;20831;-70
2023/12/08 11:01:32;;;;;;;36.47;14.63;;;;;;;;;;5027761;28;20033;-72
2023/12/08 11:04:03;;;;;;;35.07;14.47;;;;;;;;;;5034395;28;20037;-72
2023/12/08 11:06:33;;;;;;;28.93;13.43;;;;;;;;;;5029681;28;20065;-69
2023/12/08 11:09:06;;;;;;;36.03;14.60;;;;;;;;;;5025271;28;20033;-69
2023/12/08 11:11:34;;;;;;;31.67;14.57;;;;;;;;;;5036894;28;20037;-70
2023/12/08 11:14:07;;;;;;;32.17;14.40;;;;;;;;;;5028605;28;20268;-69
2023/12/08 11:16:58;;;;;;;31.13;14.57;;;;;;;;;;5026214;28;20092;-69
2023/12/08 11:19:26;;;;;;;36.23;17.07;;;;;;;;;;5024247;28;20095;-69
2023/12/08 11:21:52;;;;;;;32.20;13.37;;;;;;;;;;5048151;28;20026;-68
2023/12/08 11:24:19;;;;;;;30.83;15.47;;;;;;;;;;5046695;28;20056;-70
2023/12/08 11:26:57;;;;;;;30.77;14.23;;;;;;;;;;5015249;28;20041;-70
2023/12/08 11:29:44;;;;;;;33.80;13.17;;;;;;;;;;5035188;28;20382;-69
2023/12/08 11:32:41;;;;;;;31.70;14.30;;;;;;;;;;5028954;28;20030;-71
2023/12/08 11:35:12;;;;;;;35.50;15.23;;;;;;;;;;5024723;28;20159;-70
2023/12/08 11:37:39;;;;;;;31.00;13.67;;;;;;;;;;5028473;28;20029;-68
2023/12/08 11:40:10;;;;;;;34.73;14.47;;;;;;;;;;5028009;28;20128;-71
2023/12/08 11:42:37;;;;;;;35.93;14.43;;;;;;;;;;5041274;28;20392;-70
2023/12/08 11:45:06;;;;;;;34.23;14.67;;;;;;;;;;5031807;28;20090;-69
2023/12/08 11:47:32;;;;;;;30.93;14.53;;;;;;;;;;5031153;28;20040;-69
2023/12/08 11:49:57;;;;;;;33.90;14.00;;;;;;;;;;5033980;28;20038;-69
2023/12/08 11:52:34;;;;;;;38.40;15.80;;;;;;;;;;5031806;28;20025;-71
2023/12/08 11:55:12;;;;;;;37.13;15.63;;;;;;;;;;5030665;28;20033;-70
2023/12/08 11:57:49;;;;;;;36.07;14.73;;;;;;;;;;5033288;28;20187;-70
2023/12/08 12:00:22;;;;;;;27.87;13.37;;;;;;;;;;5029520;28;20041;-69
2023/12/08 12:02:49;;;;;;;32.77;14.60;;;;;;;;;;5034616;28;20396;-70
2023/12/08 12:05:18;;;;;;;33.67;14.93;;;;;;;;;;5032333;28;20656;-70
2023/12/08 12:07:49;;;;;;;38.10;14.93;;;;;;;;;;5037610;28;20401;-70
2023/12/08 12:10:26;;;;;;;26.10;13.50;;;;;;;;;;5025764;28;20034;-70
2023/12/08 12:13:14;;;;;;;35.47;14.70;;;;;;;;;;5011637;28;20499;-68
2023/12/08 12:15:41;;;;;;;32.13;14.53;;;;;;;;;;5022839;28;20056;-69
2023/12/08 12:18:07;;;;;;;36.43;14.43;;;;;;;;;;5028467;28;20097;-69
2023/12/08 12:20:34;;;;;;;28.60;14.00;;;;;;;;;;5033873;28;20033;-69
2023/12/08 12:23:00;;;;;;;36.47;14.50;;;;;;;;;;5022906;28;20017;-71
2023/12/08 12:25:26;;;;;;;31.13;14.83;;;;;;;;;;5023040;28;20382;-70
2023/12/08 12:27:53;;;;;;;30.50;14.37;;;;;;;;;;5022762;28;20485;-71
2023/12/08 12:30:20;;;;;;;32.83;13.17;;;;;;;;;;5025788;28;20681;-70
2023/12/08 12:32:49;;;;;;;28.27;13.67;;;;;;;;;;5023540;28;20025;-70
2023/12/08 12:35:16;;;;;;;33.57;15.60;;;;;;;;;;5026617;28;20029;-71
2023/12/08 12:37:42;;;;;;;38.07;14.80;;;;;;;;;;5029530;28;20056;-71
2023/12/08 12:40:10;;;;;;;33.67;13.33;;;;;;;;;;5020723;28;20951;-70
2023/12/08 12:42:46;;;;;;;32.47;14.27;;;;;;;;;;4999905;28;20046;-70
2023/12/08 12:45:28;;;;;;;29.80;13.87;;;;;;;;;;5014356;28;20120;-71
2023/12/08 12:48:08;;;;;;;30.30;14.63;;;;;;;;;;5023697;28;20180;-70
2023/12/08 12:50:58;;;;;;;38.03;14.77;;;;;;;;;;5024040;28;20033;-70
2023/12/08 12:53:25;;;;;;;32.47;14.27;;;;;;;;;;5025305;28;20588;-70
2023/12/08 12:55:51;;;;;;;33.43;14.93;;;;;;;;;;5026288;28;21371;-71
2023/12/08 12:58:19;;;;;;;35.03;16.03;;;;;;;;;;5024973;28;20470;-69
2023/12/08 13:00:46;;;;;;;38.10;16.13;;;;;;;;;;5022831;28;20029;-71
2023/12/08 13:03:21;;;;;;;29.90;15.17;;;;;;;;;;5016220;28;20064;-70
2023/12/08 13:05:52;;;;;;;32.70;15.67;;;;;;;;;;5046810;28;20060;-70
2023/12/08 13:08:19;;;;;;;42.47;17.67;;;;;;;;;;5019666;28;20551;-69
2023/12/08 13:10:53;;;;;;;31.87;15.63;;;;;;;;;;5019431;28;20144;-71
2023/12/08 13:13:20;;;;;;;31.43;14.93;;;;;;;;;;5026040;28;20119;-69
2023/12/08 13:15:45;;;;;;;36.77;16.53;;;;;;;;;;5045921;28;20091;-69
2023/12/08 13:18:12;;;;;;;36.67;16.43;;;;;;;;;;5014736;28;20736;-69
2023/12/08 13:20:38;;;;;;;32.03;15.87;;;;;;;;;;5020970;28;20712;-70
2023/12/08 13:23:11;;;;;;;29.27;15.80;;;;;;;;;;5020951;28;20167;-70
2023/12/08 13:25:36;;;;;;;35.47;16.30;;;;;;;;;;5021726;28;20100;-70
2023/12/08 13:28:02;;;;;;;32.93;14.77;;;;;;;;;;5024171;28;20643;-69
2023/12/08 13:30:27;;;;;;;37.10;16.43;;;;;;;;;;5036961;28;20033;-72
2023/12/08 13:32:54;;;;;;;34.60;16.17;;;;;;;;;;5025984;28;20492;-70
2023/12/08 13:35:20;;;;;;;31.87;15.17;;;;;;;;;;5038853;28;20032;-69
2023/12/08 13:37:45;;;;;;;33.23;14.37;;;;;;;;;;5025069;28;20037;-69
2023/12/08 13:40:11;;;;;;;30.10;14.70;;;;;;;;;;5045387;28;20060;-70
2023/12/08 13:42:38;;;;;;;38.17;15.20;;;;;;;;;;5030407;28;20021;-72
2023/12/08 13:45:04;;;;;;;34.90;15.23;;;;;;;;;;5001888;28;20026;-72
2023/12/08 13:47:30;;;;;;;36.73;17.23;;;;;;;;;;5017624;28;20041;-70
2023/12/08 13:49:57;;;;;;;31.30;14.83;;;;;;;;;;5025461;28;20040;-71
2023/12/08 13:52:23;;;;;;;34.00;15.13;;;;;;;;;;5018503;28;20088;-68
2023/12/08 13:54:48;;;;;;;36.07;16.87;;;;;;;;;;5015597;28;20168;-70
2023/12/08 13:57:14;;;;;;;44.77;21.90;;;;;;;;;;5019704;28;20048;-70
2023/12/08 13:59:41;;;;;;;41.30;18.70;;;;;;;;;;5024035;28;20118;-69
2023/12/08 14:02:07;;;;;;;33.03;16.10;;;;;;;;;;5022152;28;20036;-73
2023/12/08 14:04:32;;;;;;;34.80;15.17;;;;;;;;;;5025163;28;20426;-71
2023/12/08 14:06:58;;;;;;;50.30;21.27;;;;;;;;;;5022629;28;20025;-70
2023/12/08 14:09:23;;;;;;;38.37;17.73;;;;;;;;;;5020005;28;20109;-69
2023/12/08 14:11:49;;;;;;;38.13;17.47;;;;;;;;;;5019555;28;20026;-72
2023/12/08 14:14:15;;;;;;;51.27;24.27;;;;;;;;;;5028911;28;20102;-72
2023/12/08 14:16:40;;;;;;;38.70;16.60;;;;;;;;;;5017638;28;20426;-70
2023/12/08 14:19:05;;;;;;;44.00;18.47;;;;;;;;;;5026629;28;20456;-70
2023/12/08 14:21:31;;;;;;;47.50;19.73;;;;;;;;;;5029781;28;20029;-71